Terminal Aerodrome Forecast
Issued by NWS

Home | Current Version | Previous Version | Text Only | Print | Product List | Glossary On
Versions: 1 2 3 4 5 6 7 8 9 10 11
000
FTUS46 KHNX 290554
TAFVIS
TAF
KVIS 290554Z 2906/3006 31005KT P6SM SKC
     FM292300 32010KT P6SM SCT180=

USA.gov is the U.S. government's official web portal to all federal, state and local government web resources and services.